createdAt,value
2022-12-09T00:00:19.548Z,99018.59
2022-12-09T00:00:51.177Z,99018.59
2022-12-09T00:01:22.624Z,99024.84
2022-12-09T00:01:54.268Z,99016.38
2022-12-09T00:02:25.816Z,99022.63
2022-12-09T00:02:57.621Z,99018.81
2022-12-09T00:03:29.382Z,99019.91
2022-12-09T00:04:01.067Z,99018.50
2022-12-09T00:04:33.072Z,99019.91
2022-12-09T00:05:04.927Z,99016.69
2022-12-09T00:05:36.935Z,99010.94
2022-12-09T00:06:08.508Z,99018.31
2022-12-09T00:06:40.147Z,99013.97
2022-12-09T00:07:11.737Z,99016.69
2022-12-09T00:07:43.246Z,99014.47
2022-12-09T00:08:14.847Z,99012.06
2022-12-09T00:08:46.458Z,99015.59
2022-12-09T00:09:18.183Z,99014.28
2022-12-09T00:09:49.631Z,99010.94
2022-12-09T00:10:21.244Z,99012.84
2022-12-09T00:10:52.630Z,99013.34
2022-12-09T00:11:24.290Z,99011.75
2022-12-09T00:11:55.741Z,99009.03
2022-12-09T00:12:27.489Z,99004.69
2022-12-09T00:12:58.976Z,99005.81
2022-12-09T00:13:30.371Z,99004.38
2022-12-09T00:14:01.793Z,99012.06
2022-12-09T00:14:33.234Z,99009.34
2022-12-09T00:15:05.035Z,99007.41
2022-12-09T00:15:36.811Z,99007.59
2022-12-09T00:16:08.693Z,99004.06
2022-12-09T00:16:40.356Z,99000.25
2022-12-09T00:17:12.076Z,99004.56
2022-12-09T00:18:15.203Z,99008.41
2022-12-09T00:18:46.948Z,99003.56
2022-12-09T00:19:18.382Z,99009.53
2022-12-09T00:19:49.886Z,99005.69
2022-12-09T00:20:21.399Z,98998.63
2022-12-09T00:20:53.050Z,99001.34
2022-12-09T00:21:24.654Z,99000.84
2022-12-09T00:21:56.214Z,99001.97
2022-12-09T00:22:27.866Z,98996.53
2022-12-09T00:22:59.300Z,99005.50
2022-12-09T00:23:30.664Z,98999.56
2022-12-09T00:24:33.801Z,99002.78
2022-12-09T00:25:05.201Z,98998.13
2022-12-09T00:25:36.549Z,98996.22
2022-12-09T00:26:08.056Z,98998.94
2022-12-09T00:26:39.497Z,99002.47
2022-12-09T00:27:10.939Z,99001.97
2022-12-09T00:27:42.657Z,99003.09
2022-12-09T00:28:14.287Z,99000.34
2022-12-09T00:28:45.711Z,98998.13
2022-12-09T00:29:17.109Z,99006.59
2022-12-09T00:29:48.590Z,98995.72
2022-12-09T00:30:20.065Z,99003.09
2022-12-09T00:30:51.706Z,98994.09
2022-12-09T00:31:23.364Z,99000.06
2022-12-09T00:31:54.926Z,99000.06
2022-12-09T00:32:26.730Z,99003.56
2022-12-09T00:32:58.314Z,99001.66
2022-12-09T00:33:29.821Z,98998.13
2022-12-09T00:34:01.313Z,99004.69
2022-12-09T00:34:32.943Z,99004.69
2022-12-09T00:35:04.353Z,99001.47
2022-12-09T00:35:35.856Z,99003.88
2022-12-09T00:36:07.298Z,98997.31
2022-12-09T00:36:38.901Z,99003.56
2022-12-09T00:37:10.341Z,98999.25
2022-12-09T00:37:41.742Z,99009.34
2022-12-09T00:38:13.209Z,99003.88
2022-12-09T00:38:44.609Z,99006.31
2022-12-09T00:39:16.293Z,99004.69
2022-12-09T00:39:47.882Z,99002.78
2022-12-09T00:40:19.294Z,99002.28
2022-12-09T00:40:50.898Z,99013.97
2022-12-09T00:41:22.494Z,99003.88
2022-12-09T00:41:54.062Z,99005.50
2022-12-09T00:42:25.685Z,99011.75
2022-12-09T00:42:57.161Z,99007.91
2022-12-09T00:43:28.806Z,99013.84
2022-12-09T00:44:00.417Z,99016.28
2022-12-09T00:44:31.936Z,99009.53
2022-12-09T00:45:37.496Z,99007.41
2022-12-09T00:46:08.909Z,99006.59
2022-12-09T00:46:40.591Z,99006.59
2022-12-09T00:47:12.229Z,99011.75
2022-12-09T00:47:44.054Z,99010.13
2022-12-09T00:48:15.701Z,99010.94
2022-12-09T00:48:47.165Z,99014.47
2022-12-09T00:49:18.616Z,99007.41
2022-12-09T00:49:50.267Z,99005.50
2022-12-09T00:50:21.717Z,99006.59
2022-12-09T00:50:53.130Z,99008.53
2022-12-09T00:51:24.723Z,99010.94
2022-12-09T00:51:56.182Z,99012.25
2022-12-09T00:52:27.804Z,99009.53
2022-12-09T00:53:30.615Z,99017.19
2022-12-09T00:54:02.166Z,99011.75
2022-12-09T00:54:33.936Z,99009.81
2022-12-09T00:55:05.420Z,99014.47
2022-12-09T00:55:37.248Z,99017.69
2022-12-09T00:56:08.945Z,99014.97
2022-12-09T00:56:40.405Z,99018.19
2022-12-09T00:57:11.809Z,99015.78
2022-12-09T00:57:43.260Z,99018.19
2022-12-09T00:58:14.640Z,99011.13
2022-12-09T00:58:46.313Z,99015.78
2022-12-09T00:59:17.711Z,99015.47
2022-12-09T00:59:49.386Z,99015.47
2022-12-09T01:00:20.997Z,99015.78
2022-12-09T01:00:52.438Z,99012.25
2022-12-09T01:01:23.939Z,99009.22
2022-12-09T01:01:55.582Z,99010.63
2022-12-09T01:02:27.284Z,99005.69
2022-12-09T01:02:59.502Z,99007.59
2022-12-09T01:04:02.968Z,99005.69
2022-12-09T01:04:34.539Z,98998.63
2022-12-09T01:05:06.356Z,99007.91
2022-12-09T01:05:37.944Z,99004.88
2022-12-09T01:06:09.348Z,99006.31
2022-12-09T01:06:40.784Z,99008.41
2022-12-09T01:07:12.216Z,99013.25
2022-12-09T01:07:43.725Z,99011.03
2022-12-09T01:08:15.281Z,99005.25
2022-12-09T01:08:47.060Z,99009.28
2022-12-09T01:09:18.597Z,99000.50
2022-12-09T01:09:50.158Z,99003.22
2022-12-09T01:10:21.815Z,99009.66
2022-12-09T01:10:53.252Z,99002.81
2022-12-09T01:11:24.681Z,99004.41
2022-12-09T01:11:56.237Z,98995.94
2022-12-09T01:12:27.663Z,99001.88
2022-12-09T01:12:59.136Z,99005.72
2022-12-09T01:13:30.641Z,99004.91
2022-12-09T01:14:02.219Z,99003.78
2022-12-09T01:14:33.702Z,99001.88
2022-12-09T01:15:05.247Z,98999.97
2022-12-09T01:15:36.891Z,99002.38
2022-12-09T01:16:08.506Z,99000.75
2022-12-09T01:16:40.152Z,99002.38
2022-12-09T01:17:11.790Z,99000.47
2022-12-09T01:17:43.593Z,99003.97
2022-12-09T01:18:15.367Z,99003.69
2022-12-09T01:18:46.830Z,99002.88
2022-12-09T01:19:18.362Z,99000.94
2022-12-09T01:19:49.774Z,98998.44
2022-12-09T01:20:21.268Z,98998.44
2022-12-09T01:20:52.681Z,99010.66
2022-12-09T01:21:24.037Z,99004.38
2022-12-09T01:21:55.580Z,99004.88
2022-12-09T01:22:27.091Z,99006.00
2022-12-09T01:22:58.443Z,99005.69
2022-12-09T01:23:29.855Z,99006.00
2022-12-09T01:24:01.335Z,99006.31
2022-12-09T01:24:33.006Z,99005.50
2022-12-09T01:25:04.661Z,99009.03
2022-12-09T01:25:36.070Z,99005.50
2022-12-09T01:26:07.490Z,99006.81
2022-12-09T01:26:39.151Z,99008.41
2022-12-09T01:27:10.657Z,99005.69
2022-12-09T01:27:42.068Z,99009.03
2022-12-09T01:28:13.701Z,99014.47
2022-12-09T01:28:45.104Z,99007.41
2022-12-09T01:29:16.501Z,99013.69
2022-12-09T01:29:47.978Z,99010.44
2022-12-09T01:30:19.347Z,99012.06
2022-12-09T01:30:50.803Z,99009.66
2022-12-09T01:31:22.268Z,99005.28
2022-12-09T01:31:53.781Z,99012.16
2022-12-09T01:32:25.361Z,99008.31
2022-12-09T01:32:57.536Z,99005.09
2022-12-09T01:33:29.408Z,99010.25
2022-12-09T01:34:01.052Z,99011.03
2022-12-09T01:34:32.473Z,99010.53
2022-12-09T01:35:03.928Z,99009.44
2022-12-09T01:35:35.482Z,99012.47
2022-12-09T01:36:07.281Z,99012.97
2022-12-09T01:36:38.991Z,99015.69
2022-12-09T01:37:10.772Z,99009.75
2022-12-09T01:37:42.245Z,99012.97
2022-12-09T01:38:13.862Z,99014.88
2022-12-09T01:38:45.662Z,99004.78
2022-12-09T01:39:17.301Z,99014.88
2022-12-09T01:39:48.776Z,99011.34
2022-12-09T01:40:20.304Z,99013.75
2022-12-09T01:40:51.705Z,99008.31
2022-12-09T01:41:23.326Z,99014.56
2022-12-09T01:41:54.892Z,99013.28
2022-12-09T01:42:26.313Z,99008.31
2022-12-09T01:42:57.723Z,99006.72
2022-12-09T01:43:29.373Z,99010.25
2022-12-09T01:44:00.835Z,99010.25
2022-12-09T01:44:32.213Z,99013.75
2022-12-09T01:45:06.081Z,99013.28
2022-12-09T01:45:37.513Z,99010.25
2022-12-09T01:46:08.941Z,99011.34
2022-12-09T01:46:40.464Z,99006.22
2022-12-09T01:47:12.066Z,99014.06
2022-12-09T01:47:43.704Z,99008.63
2022-12-09T01:48:15.280Z,99004.59
2022-12-09T01:48:47.237Z,99003.50
2022-12-09T01:49:18.946Z,99005.59
2022-12-09T01:49:50.485Z,99001.25
2022-12-09T01:50:22.010Z,99006.41
2022-12-09T01:50:53.535Z,99001.16
2022-12-09T01:51:25.172Z,99009.03
2022-12-09T01:51:56.611Z,99003.91
2022-12-09T01:52:28.605Z,99006.63
2022-12-09T01:53:00.436Z,99004.19
2022-12-09T01:53:31.857Z,99004.69
2022-12-09T01:54:03.312Z,99004.78
2022-12-09T01:54:34.777Z,99009.13
2022-12-09T01:55:06.181Z,99004.47
2022-12-09T01:55:37.601Z,98999.84
2022-12-09T01:56:08.986Z,99001.16
2022-12-09T01:56:40.394Z,98998.75
2022-12-09T01:57:11.994Z,99007.22
2022-12-09T01:57:43.454Z,99004.19
2022-12-09T01:58:14.967Z,98999.84
2022-12-09T01:58:46.481Z,99000.94
2022-12-09T01:59:18.219Z,98997.41
2022-12-09T01:59:49.728Z,98994.69
2022-12-09T02:00:21.135Z,99005.59
2022-12-09T02:00:52.726Z,98999.84
2022-12-09T02:01:24.531Z,98998.75
2022-12-09T02:01:56.129Z,99000.38
2022-12-09T02:02:27.872Z,98992.78
2022-12-09T02:02:59.554Z,98999.03
2022-12-09T02:03:31.285Z,98995.50
2022-12-09T02:04:03.037Z,98995.22
2022-12-09T02:04:34.948Z,98996.31
2022-12-09T02:05:06.863Z,98995.72
2022-12-09T02:05:38.449Z,98995.22
2022-12-09T02:06:09.869Z,99000.16
2022-12-09T02:06:41.523Z,98990.59
2022-12-09T02:07:12.966Z,98999.03
2022-12-09T02:07:44.444Z,98990.88
2022-12-09T02:08:16.091Z,98990.06
2022-12-09T02:08:47.952Z,98993.09
2022-12-09T02:09:19.454Z,98991.97
2022-12-09T02:09:51.068Z,98993.09
2022-12-09T02:10:22.582Z,98993.59
2022-12-09T02:10:54.121Z,98986.53
2022-12-09T02:11:25.560Z,98994.38
2022-12-09T02:11:56.971Z,98999.34
2022-12-09T02:12:28.501Z,98990.88
2022-12-09T02:12:59.952Z,98988.94
2022-12-09T02:13:31.320Z,98988.13
2022-12-09T02:14:02.952Z,98993.59
2022-12-09T02:14:34.656Z,98993.31
2022-12-09T02:15:06.145Z,98994.38
2022-12-09T02:15:37.550Z,98992.78
2022-12-09T02:16:08.999Z,98988.13
2022-12-09T02:16:40.823Z,98987.31
2022-12-09T02:17:12.404Z,98997.63
2022-12-09T02:17:43.976Z,98993.00
2022-12-09T02:18:15.677Z,98993.00
2022-12-09T02:18:47.147Z,98989.47
2022-12-09T02:19:18.926Z,98993.00
2022-12-09T02:19:50.326Z,98993.00
2022-12-09T02:20:22.138Z,98989.78
2022-12-09T02:20:53.596Z,98991.66
2022-12-09T02:21:25.049Z,98985.41
2022-12-09T02:21:56.528Z,98984.59
2022-12-09T02:22:27.958Z,98985.41
2022-12-09T02:22:59.389Z,98982.69
2022-12-09T02:23:30.844Z,98987.31
2022-12-09T02:24:02.413Z,98985.41
2022-12-09T02:24:34.062Z,98988.94
2022-12-09T02:25:05.762Z,98981.59
2022-12-09T02:25:37.552Z,98980.78
2022-12-09T02:26:09.022Z,98983.50
2022-12-09T02:26:40.787Z,98984.59
2022-12-09T02:27:12.184Z,98984.34
2022-12-09T02:27:43.890Z,98983.81
2022-12-09T02:28:15.602Z,98979.97
2022-12-09T02:28:47.110Z,98983.81
2022-12-09T02:29:18.586Z,98976.75
2022-12-09T02:29:50.052Z,98985.72
2022-12-09T02:30:21.582Z,98984.59
2022-12-09T02:30:53.572Z,98984.34
2022-12-09T02:31:25.117Z,98985.41
2022-12-09T02:31:56.596Z,98986.22
2022-12-09T02:32:28.679Z,98989.25
2022-12-09T02:33:00.230Z,98978.34
2022-12-09T02:33:32.036Z,98980.28
2022-12-09T02:34:03.774Z,98979.16
2022-12-09T02:34:35.206Z,98979.47
2022-12-09T02:35:06.578Z,98977.25
2022-12-09T02:35:37.971Z,98986.22
2022-12-09T02:36:09.445Z,98980.78
2022-12-09T02:36:40.950Z,98978.88
2022-12-09T02:37:12.578Z,98976.44
2022-12-09T02:37:43.990Z,98984.34
2022-12-09T02:38:15.676Z,98982.69
2022-12-09T02:38:47.418Z,98982.09
2022-12-09T02:39:19.147Z,98989.47
2022-12-09T02:39:50.529Z,98978.34
2022-12-09T02:40:21.927Z,98977.25
2022-12-09T02:40:53.316Z,98978.03
2022-12-09T02:41:24.941Z,98980.28
2022-12-09T02:41:56.567Z,98982.69
2022-12-09T02:42:28.014Z,98987.63
2022-12-09T02:42:59.563Z,98983.31
2022-12-09T02:43:31.128Z,98981.38
2022-12-09T02:44:02.570Z,98982.19
2022-12-09T02:44:34.042Z,98979.47
2022-12-09T02:45:05.767Z,98986.53
2022-12-09T02:45:37.261Z,98979.16
2022-12-09T02:46:08.634Z,98988.13
2022-12-09T02:46:40.093Z,98984.59
2022-12-09T02:47:11.857Z,98980.28
2022-12-09T02:47:43.415Z,98975.63
2022-12-09T02:48:15.148Z,98987.06
2022-12-09T02:48:46.715Z,98980.19
2022-12-09T02:49:18.826Z,98978.88
2022-12-09T02:49:50.607Z,98973.13
2022-12-09T02:50:22.212Z,98977.25
2022-12-09T02:50:53.677Z,98979.47
2022-12-09T02:51:25.232Z,98982.19
2022-12-09T02:51:56.638Z,98974.34
2022-12-09T02:52:28.281Z,98975.63
2022-12-09T02:52:59.710Z,98977.75
2022-12-09T02:53:31.121Z,98983.81
2022-12-09T02:54:02.648Z,98970.72
2022-12-09T02:54:34.336Z,98979.16
2022-12-09T02:55:06.226Z,98979.47
2022-12-09T02:55:37.664Z,98978.34
2022-12-09T02:56:09.077Z,98974.03
2022-12-09T02:56:40.685Z,98976.44
2022-12-09T02:57:12.272Z,98980.28
2022-12-09T02:57:44.070Z,98980.28
2022-12-09T02:58:15.761Z,98979.97
2022-12-09T02:58:47.122Z,98982.41
2022-12-09T02:59:18.606Z,98982.41
2022-12-09T02:59:50.057Z,98970.19
2022-12-09T03:00:21.659Z,98978.34
2022-12-09T03:00:53.202Z,98965.84
2022-12-09T03:01:24.898Z,98973.22
2022-12-09T03:01:56.507Z,98963.13
2022-12-09T03:02:28.197Z,98969.69
2022-12-09T03:02:59.802Z,98963.94
2022-12-09T03:03:31.569Z,98969.06
2022-12-09T03:04:03.547Z,98968.25
2022-12-09T03:04:35.383Z,98971.28
2022-12-09T03:05:06.876Z,98972.09
2022-12-09T03:05:38.275Z,98970.19
2022-12-09T03:06:09.692Z,98967.97
2022-12-09T03:06:41.459Z,98975.31
2022-12-09T03:07:13.182Z,98970.19
2022-12-09T03:07:44.732Z,98964.25
2022-12-09T03:08:16.553Z,98972.91
2022-12-09T03:08:48.330Z,98963.63
2022-12-09T03:09:20.099Z,98966.66
2022-12-09T03:09:51.768Z,98970.50
2022-12-09T03:10:23.161Z,98971.28
2022-12-09T03:10:54.848Z,98972.09
2022-12-09T03:11:26.524Z,98969.38
2022-12-09T03:11:57.950Z,98965.03
2022-12-09T03:12:29.366Z,98971.28
2022-12-09T03:13:01.091Z,98963.94
2022-12-09T03:13:32.747Z,98965.84
2022-12-09T03:14:04.369Z,98968.25
2022-12-09T03:14:36.158Z,98969.06
2022-12-09T03:15:07.940Z,98970.72
2022-12-09T03:15:39.409Z,98976.16
2022-12-09T03:16:10.896Z,98978.03
2022-12-09T03:16:42.596Z,98975.31
2022-12-09T03:17:14.192Z,98972.91
2022-12-09T03:17:46.010Z,98972.91
2022-12-09T03:18:17.689Z,98972.41
2022-12-09T03:18:49.207Z,98969.88
2022-12-09T03:19:20.639Z,98969.06
2022-12-09T03:19:52.126Z,98972.91
2022-12-09T03:20:23.845Z,98973.44
2022-12-09T03:20:55.528Z,98968.56
2022-12-09T03:21:27.109Z,98971.78
2022-12-09T03:21:58.592Z,98968.25
2022-12-09T03:22:30.276Z,98973.44
2022-12-09T03:23:01.703Z,98970.72
2022-12-09T03:23:33.821Z,98970.72
2022-12-09T03:24:05.220Z,98969.06
2022-12-09T03:24:36.601Z,98973.44
2022-12-09T03:25:08.171Z,98960.91
2022-12-09T03:25:39.766Z,98964.72
2022-12-09T03:26:11.181Z,98972.41
2022-12-09T03:26:42.612Z,98958.47
2022-12-09T03:27:13.991Z,98968.25
2022-12-09T03:27:45.587Z,98965.84
2022-12-09T03:28:17.140Z,98959.59
2022-12-09T03:28:48.609Z,98961.22
2022-12-09T03:29:20.080Z,98963.63
2022-12-09T03:29:51.429Z,98956.56
2022-12-09T03:30:23.036Z,98963.13
2022-12-09T03:30:54.575Z,98956.56
2022-12-09T03:31:26.347Z,98960.41
2022-12-09T03:31:57.886Z,98954.94
2022-12-09T03:32:29.667Z,98961.50
2022-12-09T03:33:01.256Z,98956.88
2022-12-09T03:33:32.881Z,98954.16
2022-12-09T03:34:04.532Z,98947.91
2022-12-09T03:34:36.231Z,98956.56
2022-12-09T03:35:07.787Z,98953.03
2022-12-09T03:35:39.296Z,98954.94
2022-12-09T03:36:10.728Z,98953.84
2022-12-09T03:36:42.249Z,98948.38
2022-12-09T03:37:13.755Z,98950.81
2022-12-09T03:37:45.246Z,98954.16
2022-12-09T03:38:16.616Z,98958.47
2022-12-09T03:38:48.364Z,98953.84
2022-12-09T03:39:19.865Z,98952.72
2022-12-09T03:39:51.325Z,98951.91
2022-12-09T03:40:23.291Z,98958.97
2022-12-09T03:40:55.839Z,98951.91
2022-12-09T03:41:27.249Z,98960.91
2022-12-09T03:41:59.002Z,98954.94
2022-12-09T03:42:30.433Z,98957.38
2022-12-09T03:43:01.863Z,98950.00
2022-12-09T03:43:33.281Z,98948.09
2022-12-09T03:44:04.753Z,98951.91
2022-12-09T03:44:36.310Z,98955.16
2022-12-09T03:45:07.734Z,98955.16
2022-12-09T03:45:39.432Z,98951.91
2022-12-09T03:46:11.049Z,98948.38
2022-12-09T03:46:42.678Z,98950.00
2022-12-09T03:47:14.392Z,98954.63
2022-12-09T03:47:46.034Z,98947.28
2022-12-09T03:48:17.825Z,98951.63
2022-12-09T03:48:49.334Z,98951.63
2022-12-09T03:49:21.001Z,98952.72
2022-12-09T03:49:52.484Z,98952.44
2022-12-09T03:50:24.033Z,98956.78
2022-12-09T03:50:55.520Z,98953.53
2022-12-09T03:51:27.366Z,98952.13
2022-12-09T03:51:58.890Z,98952.13
2022-12-09T03:52:30.263Z,98947.50
2022-12-09T03:53:02.019Z,98949.72
2022-12-09T03:53:33.578Z,98943.47
2022-12-09T03:54:05.385Z,98947.00
2022-12-09T03:54:36.922Z,98941.03
2022-12-09T03:55:08.737Z,98947.28
2022-12-09T03:55:40.216Z,98942.94
2022-12-09T03:56:11.630Z,98940.22
2022-12-09T03:56:43.071Z,98946.47
2022-12-09T03:57:18.733Z,98943.75
2022-12-09T03:57:50.929Z,98944.56
2022-12-09T03:58:22.615Z,98944.56
2022-12-09T03:58:54.095Z,98940.53
2022-12-09T03:59:25.783Z,98942.94
2022-12-09T03:59:57.395Z,98942.94
2022-12-09T04:00:28.828Z,98938.59
2022-12-09T04:01:00.284Z,98945.16
2022-12-09T04:01:32.208Z,98942.44
2022-12-09T04:02:03.956Z,98948.69
2022-12-09T04:02:35.620Z,98947.91
2022-12-09T04:03:07.230Z,98946.78
2022-12-09T04:03:39.155Z,98942.94
2022-12-09T04:04:11.285Z,98944.06
2022-12-09T04:04:42.859Z,98940.22
2022-12-09T04:05:14.604Z,98937.50
2022-12-09T04:05:46.339Z,98940.53
2022-12-09T04:06:17.862Z,98937.00
2022-12-09T04:06:49.286Z,98942.13
2022-12-09T04:07:20.801Z,98938.59
2022-12-09T04:07:52.483Z,98928.50
2022-12-09T04:08:24.067Z,98927.13
2022-12-09T04:09:00.733Z,98933.97
2022-12-09T04:09:33.678Z,98929.31
2022-12-09T04:10:05.599Z,98935.09
2022-12-09T04:10:37.435Z,98937.00
2022-12-09T04:11:09.057Z,98928.81
2022-12-09T04:11:40.587Z,98933.47
2022-12-09T04:12:12.264Z,98929.94
2022-12-09T04:12:43.918Z,98926.41
2022-12-09T04:13:15.578Z,98933.97
2022-12-09T04:13:47.052Z,98926.09
2022-12-09T04:14:18.468Z,98928.50
2022-12-09T04:14:49.862Z,98920.03
2022-12-09T04:15:21.464Z,98921.94
2022-12-09T04:15:52.963Z,98928.22
2022-12-09T04:16:24.505Z,98919.22
2022-12-09T04:16:56.178Z,98917.63
2022-12-09T04:17:27.964Z,98920.34
2022-12-09T04:17:59.757Z,98920.66
2022-12-09T04:18:31.338Z,98926.59
2022-12-09T04:19:05.670Z,98925.78
2022-12-09T04:19:37.081Z,98923.06
2022-12-09T04:20:09.097Z,98920.03
2022-12-09T04:20:41.173Z,98923.88
2022-12-09T04:21:13.017Z,98926.59
2022-12-09T04:21:44.722Z,98922.25
2022-12-09T04:22:16.341Z,98931.75
2022-12-09T04:22:47.984Z,98920.34
2022-12-09T04:23:19.537Z,98919.53
2022-12-09T04:23:50.951Z,98927.13
2022-12-09T04:24:22.323Z,98932.25
2022-12-09T04:24:53.711Z,98925.47
2022-12-09T04:25:25.095Z,98927.13
2022-12-09T04:25:56.705Z,98926.59
2022-12-09T04:26:28.239Z,98923.88
2022-12-09T04:26:59.655Z,98917.63
2022-12-09T04:27:31.352Z,98923.06
2022-12-09T04:28:02.916Z,98927.41
2022-12-09T04:28:34.365Z,98915.69
2022-12-09T04:29:05.848Z,98925.78
2022-12-09T04:29:37.238Z,98922.25
2022-12-09T04:30:09.120Z,98925.78
2022-12-09T04:30:40.775Z,98923.88
2022-12-09T04:31:12.284Z,98925.47
2022-12-09T04:31:44.650Z,98930.13
2022-12-09T04:32:16.600Z,98925.47
2022-12-09T04:32:48.479Z,98925.47
2022-12-09T04:33:20.284Z,98922.75
2022-12-09T04:33:52.005Z,98922.47
2022-12-09T04:34:23.453Z,98920.03
2022-12-09T04:34:54.918Z,98921.47
2022-12-09T04:35:26.395Z,98923.88
2022-12-09T04:35:57.871Z,98925.47
2022-12-09T04:36:29.550Z,98926.91
2022-12-09T04:37:01.131Z,98920.34
2022-12-09T04:37:32.731Z,98920.34
2022-12-09T04:38:04.428Z,98926.28
2022-12-09T04:38:35.887Z,98923.56
2022-12-09T04:39:07.553Z,98919.53
2022-12-09T04:39:39.160Z,98932.25
2022-12-09T04:40:11.077Z,98927.94
2022-12-09T04:40:42.864Z,98925.19
2022-12-09T04:41:14.566Z,98929.31
2022-12-09T04:41:46.009Z,98926.59
2022-12-09T04:42:17.704Z,98927.41
2022-12-09T04:42:49.403Z,98925.47
2022-12-09T04:43:21.108Z,98921.94
2022-12-09T04:43:52.496Z,98922.75
2022-12-09T04:44:23.910Z,98922.75
2022-12-09T04:44:55.283Z,98920.03
2022-12-09T04:45:26.786Z,98925.47
2022-12-09T04:45:58.582Z,98916.81
2022-12-09T04:46:30.304Z,98917.31
2022-12-09T04:47:02.004Z,98924.91
2022-12-09T04:47:33.547Z,98925.19
2022-12-09T04:48:05.057Z,98924.69
2022-12-09T04:48:36.654Z,98924.41
2022-12-09T04:49:08.218Z,98921.94
2022-12-09T04:49:39.764Z,98923.06
2022-12-09T04:50:11.647Z,98930.66
2022-12-09T04:50:43.566Z,98929.00
2022-12-09T04:51:15.016Z,98927.41
2022-12-09T04:51:46.500Z,98933.66
2022-12-09T04:52:17.945Z,98930.13
2022-12-09T04:52:49.615Z,98932.84
2022-12-09T04:53:21.013Z,98926.59
2022-12-09T04:53:52.635Z,98928.50
2022-12-09T04:54:24.207Z,98926.28
2022-12-09T04:54:55.762Z,98934.78
2022-12-09T04:55:27.472Z,98934.78
2022-12-09T04:55:58.952Z,98926.59
2022-12-09T04:56:30.356Z,98930.13
2022-12-09T04:57:01.825Z,98927.13
2022-12-09T04:57:33.375Z,98931.47
2022-12-09T04:58:05.184Z,98933.06
2022-12-09T04:58:36.693Z,98929.22
2022-12-09T04:59:08.091Z,98925.69
2022-12-09T04:59:39.514Z,98921.69
2022-12-09T05:00:11.300Z,98921.69
2022-12-09T05:00:43.281Z,98926.00
2022-12-09T05:01:16.346Z,98928.50
2022-12-09T05:01:49.210Z,98930.13
2022-12-09T05:02:21.231Z,98923.06
2022-12-09T05:02:52.777Z,98929.31
2022-12-09T05:03:24.253Z,98924.19
2022-12-09T05:03:56.262Z,98929.63
2022-12-09T05:04:28.032Z,98921.16
2022-12-09T05:04:59.783Z,98926.59
2022-12-09T05:05:31.447Z,98925.00
2022-12-09T05:06:03.338Z,98923.06
2022-12-09T05:06:35.223Z,98920.34
2022-12-09T05:07:06.995Z,98923.88
2022-12-09T05:07:38.846Z,98918.44
2022-12-09T05:08:10.649Z,98921.78
2022-12-09T05:08:42.417Z,98929.31
2022-12-09T05:09:14.484Z,98921.47
2022-12-09T05:09:46.466Z,98923.06
2022-12-09T05:10:18.138Z,98922.25
2022-12-09T05:10:49.801Z,98922.25
2022-12-09T05:11:21.706Z,98927.72
2022-12-09T05:11:53.633Z,98922.25
2022-12-09T05:12:25.307Z,98929.31
2022-12-09T05:12:56.762Z,98926.59
2022-12-09T05:13:28.553Z,98925.47
2022-12-09T05:14:00.439Z,98925.47
2022-12-09T05:14:32.341Z,98924.69
2022-12-09T05:15:06.544Z,98923.56
2022-12-09T05:15:38.356Z,98924.41
2022-12-09T05:16:15.613Z,98922.47
2022-12-09T05:16:48.327Z,98932.56
2022-12-09T05:17:20.379Z,98929.31
2022-12-09T05:17:52.093Z,98929.31
2022-12-09T05:18:23.679Z,98926.59
2022-12-09T05:18:55.566Z,98924.41
2022-12-09T05:19:27.349Z,98928.50
2022-12-09T05:19:59.194Z,98926.59
2022-12-09T05:20:30.612Z,98939.41
2022-12-09T05:21:02.471Z,98935.09
2022-12-09T05:21:34.066Z,98930.75
2022-12-09T05:22:05.821Z,98928.03
2022-12-09T05:22:37.440Z,98930.75
2022-12-09T05:23:09.778Z,98935.09
2022-12-09T05:23:41.770Z,98933.97
2022-12-09T05:24:13.692Z,98930.75
2022-12-09T05:24:45.219Z,98933.47
2022-12-09T05:25:16.924Z,98935.09
2022-12-09T05:25:48.633Z,98934.78
2022-12-09T05:26:20.124Z,98932.03
2022-12-09T05:26:51.927Z,98932.84
2022-12-09T05:27:23.551Z,98936.38
2022-12-09T05:27:55.156Z,98930.94
2022-12-09T05:28:26.858Z,98929.00
2022-12-09T05:28:58.464Z,98927.13
2022-12-09T05:29:29.974Z,98934.78
2022-12-09T05:30:03.380Z,98935.09
2022-12-09T05:30:37.834Z,98937.50
2022-12-09T05:31:09.415Z,98928.50
2022-12-09T05:31:41.431Z,98931.75
2022-12-09T05:32:13.345Z,98930.94
2022-12-09T05:32:45.494Z,98930.13
2022-12-09T05:33:17.578Z,98938.81
2022-12-09T05:33:49.635Z,98930.94
2022-12-09T05:34:21.376Z,98933.66
2022-12-09T05:34:52.892Z,98927.41
2022-12-09T05:35:24.338Z,98929.84
2022-12-09T05:35:55.801Z,98926.28
2022-12-09T05:36:27.659Z,98926.59
2022-12-09T05:36:59.502Z,98930.94
2022-12-09T05:37:31.257Z,98927.13
2022-12-09T05:38:02.850Z,98934.66
2022-12-09T05:38:34.421Z,98927.94
2022-12-09T05:39:06.069Z,98925.69
2022-12-09T05:39:38.029Z,98923.78
2022-12-09T05:40:10.191Z,98927.94
2022-12-09T05:40:42.058Z,98930.66
2022-12-09T05:41:13.615Z,98924.91
2022-12-09T05:41:45.111Z,98925.47
2022-12-09T05:42:16.676Z,98929.00
2022-12-09T05:42:48.517Z,98930.66
2022-12-09T05:43:19.997Z,98928.72
2022-12-09T05:43:51.805Z,98930.34
2022-12-09T05:44:23.789Z,98933.06
2022-12-09T05:44:55.329Z,98933.06
2022-12-09T05:45:26.871Z,98931.47
2022-12-09T05:45:58.407Z,98929.84
2022-12-09T05:46:30.665Z,98929.53
2022-12-09T05:47:02.230Z,98929.22
2022-12-09T05:47:34.045Z,98932.44
2022-12-09T05:48:05.918Z,98932.75
2022-12-09T05:48:37.642Z,98924.59
2022-12-09T05:49:09.737Z,98933.56
2022-12-09T05:49:41.711Z,98928.22
2022-12-09T05:50:13.663Z,98935.78
2022-12-09T05:50:45.588Z,98937.72
2022-12-09T05:51:17.344Z,98930.94
2022-12-09T05:51:49.064Z,98933.38
2022-12-09T05:52:20.594Z,98933.06
2022-12-09T05:52:52.341Z,98930.66
2022-12-09T05:53:23.739Z,98934.47
2022-12-09T05:53:55.669Z,98933.66
2022-12-09T05:54:27.317Z,98930.13
2022-12-09T05:54:59.032Z,98934.97
2022-12-09T05:55:30.730Z,98930.66
2022-12-09T05:56:02.383Z,98933.38
2022-12-09T05:56:34.546Z,98926.81
2022-12-09T05:57:06.508Z,98930.34
2022-12-09T05:57:38.150Z,98930.66
2022-12-09T05:58:09.785Z,98929.53
2022-12-09T05:58:41.552Z,98931.94
2022-12-09T05:59:13.239Z,98928.41
2022-12-09T05:59:44.840Z,98928.41
2022-12-09T06:00:16.583Z,98922.97
2022-12-09T06:00:48.434Z,98930.34
2022-12-09T06:01:20.082Z,98926.50
2022-12-09T06:01:51.719Z,98931.75
2022-12-09T06:02:23.459Z,98923.78
2022-12-09T06:02:55.206Z,98925.47
2022-12-09T06:03:27.189Z,98921.69
2022-12-09T06:03:58.820Z,98920.03
2022-12-09T06:04:30.642Z,98921.16
2022-12-09T06:05:02.345Z,98912.97
2022-12-09T06:05:34.587Z,98919.22
2022-12-09T06:06:06.400Z,98923.88
2022-12-09T06:06:38.378Z,98918.44
2022-12-09T06:07:10.332Z,98915.69
2022-12-09T06:07:42.299Z,98916.81
2022-12-09T06:08:14.774Z,98914.41
2022-12-09T06:08:46.616Z,98917.63
2022-12-09T06:09:18.268Z,98913.19
2022-12-09T06:09:50.322Z,98910.78
2022-12-09T06:10:22.334Z,98916.22
2022-12-09T06:10:53.964Z,98918.13
2022-12-09T06:11:26.081Z,98915.38
2022-12-09T06:11:58.154Z,98915.69
2022-12-09T06:12:29.897Z,98912.19
2022-12-09T06:13:01.811Z,98914.59
2022-12-09T06:13:33.484Z,98917.31
2022-12-09T06:14:04.971Z,98912.66
2022-12-09T06:14:36.561Z,98911.59